Time;durP1;ratioP1;P1;durP2;ratioP2;P2;SDS_P1;SDS_P2;PMS_P1;PMS_P2;Temp;Humidity;BMP_temperature;BMP_pressure;BME280_temperature;BME280_humidity;BME280_pressure;Samples;Min_cycle;Max_cycle;Signal;HPM_P1;HPM_P2
2023/01/09 00:01:56;;;;;;;1.05;0.50;;;;;;;;;;5003915;28;20022;-80
2023/01/09 00:04:21;;;;;;;1.25;0.50;;;;;;;;;;4999671;28;20782;-80
2023/01/09 00:06:52;;;;;;;0.50;0.38;;;;;;;;;;4997547;28;20034;-80
2023/01/09 00:09:19;;;;;;;0.88;0.50;;;;;;;;;;5002997;28;20022;-81
2023/01/09 00:11:45;;;;;;;1.42;0.50;;;;;;;;;;4998011;28;20034;-81
2023/01/09 00:14:10;;;;;;;1.63;0.40;;;;;;;;;;5002177;28;20119;-80
2023/01/09 00:16:36;;;;;;;0.70;0.32;;;;;;;;;;5002490;28;20037;-80
2023/01/09 00:19:01;;;;;;;1.42;0.40;;;;;;;;;;5001753;28;20022;-80
2023/01/09 00:21:26;;;;;;;0.95;0.50;;;;;;;;;;4997017;28;20612;-80
2023/01/09 00:23:53;;;;;;;0.77;0.40;;;;;;;;;;5005907;28;20033;-80
2023/01/09 00:26:19;;;;;;;1.38;0.50;;;;;;;;;;5001955;28;20033;-80
2023/01/09 00:28:46;;;;;;;0.38;0.32;;;;;;;;;;5021298;28;20035;-80
2023/01/09 00:31:12;;;;;;;1.23;0.40;;;;;;;;;;5001658;28;20391;-80
2023/01/09 00:33:41;;;;;;;2.03;0.57;;;;;;;;;;5004480;28;20037;-80
2023/01/09 00:36:07;;;;;;;2.30;0.40;;;;;;;;;;5008479;28;20108;-80
2023/01/09 00:38:33;;;;;;;0.75;0.40;;;;;;;;;;4998868;28;20121;-80
2023/01/09 00:41:00;;;;;;;0.57;0.38;;;;;;;;;;4994333;28;20120;-80
2023/01/09 00:43:29;;;;;;;0.90;0.63;;;;;;;;;;5001612;28;20026;-80
2023/01/09 00:45:54;;;;;;;1.30;0.70;;;;;;;;;;4998829;28;20492;-80
2023/01/09 00:48:25;;;;;;;1.05;0.57;;;;;;;;;;5004855;28;20030;-80
2023/01/09 00:50:53;;;;;;;1.50;0.60;;;;;;;;;;4995617;28;20097;-80
2023/01/09 00:53:22;;;;;;;1.10;0.50;;;;;;;;;;4995037;28;20091;-80
2023/01/09 00:55:49;;;;;;;1.10;0.50;;;;;;;;;;4997948;28;20081;-80
2023/01/09 00:58:14;;;;;;;2.03;0.60;;;;;;;;;;5003034;28;20053;-80
2023/01/09 01:00:40;;;;;;;0.60;0.40;;;;;;;;;;4994231;28;20517;-80
2023/01/09 01:03:05;;;;;;;0.93;0.50;;;;;;;;;;5004412;28;20032;-81
2023/01/09 01:08:17;;;;;;;1.15;0.50;;;;;;;;;;5003896;28;20037;-80
2023/01/09 01:10:44;;;;;;;1.15;0.60;;;;;;;;;;5000890;28;20030;-80
2023/01/09 01:13:10;;;;;;;0.80;0.50;;;;;;;;;;4994204;28;20049;-80
2023/01/09 01:15:38;;;;;;;1.15;0.50;;;;;;;;;;5006015;28;20036;-80
2023/01/09 01:18:04;;;;;;;3.80;0.60;;;;;;;;;;5005280;28;20079;-80
2023/01/09 01:20:29;;;;;;;2.10;1.08;;;;;;;;;;5004481;28;20071;-80
2023/01/09 01:22:54;;;;;;;2.22;0.70;;;;;;;;;;5002879;28;20064;-80
2023/01/09 01:25:20;;;;;;;1.77;0.65;;;;;;;;;;5003114;28;20670;-80
2023/01/09 01:27:45;;;;;;;2.22;0.60;;;;;;;;;;4998120;28;20120;-80
2023/01/09 01:30:13;;;;;;;1.10;0.60;;;;;;;;;;4995157;28;20026;-80
2023/01/09 01:32:39;;;;;;;2.03;0.70;;;;;;;;;;4992593;28;20088;-80
2023/01/09 01:35:06;;;;;;;1.63;0.75;;;;;;;;;;4998393;28;20034;-80
2023/01/09 01:37:33;;;;;;;1.38;0.63;;;;;;;;;;4994095;28;20156;-80
2023/01/09 01:39:58;;;;;;;1.92;0.80;;;;;;;;;;5003702;28;20036;-80
2023/01/09 01:42:24;;;;;;;1.30;0.65;;;;;;;;;;4992452;28;20556;-80
2023/01/09 01:45:01;;;;;;;1.60;0.73;;;;;;;;;;4995180;28;20560;-80
2023/01/09 01:47:30;;;;;;;1.20;0.68;;;;;;;;;;4992644;28;20498;-80
2023/01/09 01:49:57;;;;;;;3.60;0.70;;;;;;;;;;4996684;28;20061;-80
2023/01/09 01:52:24;;;;;;;1.52;0.60;;;;;;;;;;4990916;28;20038;-80
2023/01/09 01:54:49;;;;;;;1.35;0.70;;;;;;;;;;4995615;28;20485;-80
2023/01/09 01:57:15;;;;;;;1.00;0.52;;;;;;;;;;4994559;28;20034;-80
2023/01/09 01:59:48;;;;;;;1.83;0.60;;;;;;;;;;4994874;28;20449;-80
2023/01/09 02:02:17;;;;;;;2.40;0.63;;;;;;;;;;4993768;28;20530;-80
2023/01/09 02:04:44;;;;;;;1.92;0.80;;;;;;;;;;5003381;28;20037;-80
2023/01/09 02:07:09;;;;;;;1.40;0.60;;;;;;;;;;5004893;28;20026;-80
2023/01/09 02:09:37;;;;;;;2.88;0.85;;;;;;;;;;4999538;28;20087;-80
2023/01/09 02:12:18;;;;;;;2.08;0.80;;;;;;;;;;5002087;28;20053;-80
2023/01/09 02:14:46;;;;;;;2.10;0.63;;;;;;;;;;5012170;28;20084;-80
2023/01/09 02:17:28;;;;;;;1.55;0.63;;;;;;;;;;5001824;28;20084;-80
2023/01/09 02:20:22;;;;;;;1.63;0.70;;;;;;;;;;4999153;28;21461;-80
2023/01/09 02:23:12;;;;;;;1.17;0.65;;;;;;;;;;5022610;28;20362;-80
2023/01/09 02:26:28;;;;;;;1.88;0.60;;;;;;;;;;4999110;28;20087;-80
2023/01/09 02:29:32;;;;;;;1.30;0.70;;;;;;;;;;4982633;28;20042;-80
2023/01/09 02:32:30;;;;;;;1.50;0.80;;;;;;;;;;4944199;28;20027;-80
2023/01/09 02:35:25;;;;;;;2.30;0.70;;;;;;;;;;4955512;28;20067;-80
2023/01/09 02:38:21;;;;;;;2.25;0.80;;;;;;;;;;4985022;28;20038;-80
2023/01/09 02:40:58;;;;;;;1.95;0.80;;;;;;;;;;4986381;28;20057;-80
2023/01/09 02:43:25;;;;;;;1.48;0.75;;;;;;;;;;4992409;28;20030;-80
2023/01/09 02:45:51;;;;;;;2.33;0.90;;;;;;;;;;4993563;28;20045;-80
2023/01/09 02:48:16;;;;;;;1.73;0.75;;;;;;;;;;4997576;28;20026;-80
2023/01/09 02:51:00;;;;;;;1.95;0.95;;;;;;;;;;4991722;28;20026;-80
2023/01/09 02:53:43;;;;;;;;;;;;;;;;;;4996469;28;20774;-80
2023/01/09 02:56:27;;;;;;;2.75;1.10;;;;;;;;;;5006197;28;19944;-80
2023/01/09 02:59:04;;;;;;;3.03;0.80;;;;;;;;;;4998372;28;20508;-80
2023/01/09 03:02:08;;;;;;;1.88;0.70;;;;;;;;;;4995945;28;20028;-80
2023/01/09 03:04:42;;;;;;;3.15;1.08;;;;;;;;;;5009733;28;20044;-80
2023/01/09 03:07:21;;;;;;;4.32;0.93;;;;;;;;;;4996018;28;20552;-80
2023/01/09 03:09:51;;;;;;;3.58;0.80;;;;;;;;;;4998998;28;20114;-80
2023/01/09 03:12:21;;;;;;;2.65;0.88;;;;;;;;;;4995216;28;20509;-80
2023/01/09 03:14:57;;;;;;;2.65;0.90;;;;;;;;;;4994679;28;20042;-80
2023/01/09 03:17:49;;;;;;;1.52;0.80;;;;;;;;;;4996188;28;21864;-80
2023/01/09 03:20:20;;;;;;;2.97;0.77;;;;;;;;;;4992790;28;20092;-80
2023/01/09 03:22:56;;;;;;;2.30;0.90;;;;;;;;;;5005412;28;20029;-80
2023/01/09 03:25:22;;;;;;;2.55;0.88;;;;;;;;;;5003585;28;20117;-80
2023/01/09 03:27:53;;;;;;;2.53;0.90;;;;;;;;;;4996880;28;20034;-80
2023/01/09 03:30:18;;;;;;;3.08;1.00;;;;;;;;;;5003078;28;20573;-80
2023/01/09 03:32:44;;;;;;;3.28;1.00;;;;;;;;;;4992364;28;20100;-80
2023/01/09 03:35:09;;;;;;;6.45;1.02;;;;;;;;;;5003438;28;20120;-80
2023/01/09 03:37:34;;;;;;;3.17;0.90;;;;;;;;;;5001068;28;20072;-80
2023/01/09 03:40:00;;;;;;;4.18;1.00;;;;;;;;;;5004663;28;20393;-80
2023/01/09 03:42:25;;;;;;;2.95;1.00;;;;;;;;;;5007305;28;20075;-80
2023/01/09 03:44:50;;;;;;;2.05;0.77;;;;;;;;;;5010380;28;20041;-80
2023/01/09 03:47:16;;;;;;;1.67;0.85;;;;;;;;;;5003444;28;20540;-80
2023/01/09 03:49:41;;;;;;;3.60;1.25;;;;;;;;;;5009352;28;20030;-80
2023/01/09 03:52:07;;;;;;;3.05;0.98;;;;;;;;;;5004839;28;20120;-80
2023/01/09 03:54:32;;;;;;;1.58;0.80;;;;;;;;;;4999611;28;20433;-80
2023/01/09 03:56:57;;;;;;;1.65;0.90;;;;;;;;;;4996832;28;20029;-80
2023/01/09 03:59:24;;;;;;;2.33;0.75;;;;;;;;;;4994607;28;20021;-80
2023/01/09 04:01:50;;;;;;;1.45;0.88;;;;;;;;;;4994095;28;20026;-80
2023/01/09 04:04:15;;;;;;;1.27;0.60;;;;;;;;;;4998213;28;20022;-80
2023/01/09 04:06:41;;;;;;;5.30;1.10;;;;;;;;;;4996129;28;20037;-80
2023/01/09 04:09:06;;;;;;;2.10;0.80;;;;;;;;;;4996665;28;20607;-80
2023/01/09 04:11:31;;;;;;;2.58;0.80;;;;;;;;;;4996770;28;20099;-80
2023/01/09 04:13:57;;;;;;;2.63;0.80;;;;;;;;;;4997238;28;20393;-80
2023/01/09 04:16:22;;;;;;;1.85;0.80;;;;;;;;;;4992910;28;20626;-80
2023/01/09 04:18:47;;;;;;;2.45;0.80;;;;;;;;;;4999289;28;20436;-80
2023/01/09 04:21:13;;;;;;;3.33;0.90;;;;;;;;;;4999323;28;20113;-80
2023/01/09 04:23:38;;;;;;;1.70;0.90;;;;;;;;;;4998214;28;20030;-80
2023/01/09 04:26:04;;;;;;;2.05;0.90;;;;;;;;;;4993438;28;20080;-80
2023/01/09 04:28:30;;;;;;;2.10;0.80;;;;;;;;;;5021526;28;20042;-80
2023/01/09 04:30:55;;;;;;;2.63;0.93;;;;;;;;;;5003986;28;21784;-80
2023/01/09 04:33:20;;;;;;;2.83;0.90;;;;;;;;;;5004966;28;20029;-80
2023/01/09 04:35:46;;;;;;;6.07;0.80;;;;;;;;;;5017390;28;20026;-80
2023/01/09 04:38:11;;;;;;;1.85;0.80;;;;;;;;;;5005697;28;20085;-80
2023/01/09 04:40:37;;;;;;;3.45;0.90;;;;;;;;;;5005475;28;20080;-80
2023/01/09 04:43:02;;;;;;;1.95;0.93;;;;;;;;;;5003747;28;20493;-80
2023/01/09 04:45:28;;;;;;;2.38;0.90;;;;;;;;;;5001745;28;20025;-79
2023/01/09 04:47:53;;;;;;;2.75;0.90;;;;;;;;;;5015888;28;20060;-80
2023/01/09 04:50:18;;;;;;;1.65;0.70;;;;;;;;;;5007028;28;20034;-80
2023/01/09 04:52:44;;;;;;;4.60;1.02;;;;;;;;;;5009596;28;20540;-80
2023/01/09 04:55:09;;;;;;;2.22;0.80;;;;;;;;;;5002202;28;20429;-80
2023/01/09 04:57:37;;;;;;;3.45;0.90;;;;;;;;;;5001497;28;20393;-80
2023/01/09 05:00:04;;;;;;;3.70;1.00;;;;;;;;;;5006594;28;20026;-80
2023/01/09 05:02:29;;;;;;;2.45;0.88;;;;;;;;;;5013786;28;20021;-80
2023/01/09 05:04:54;;;;;;;2.50;0.90;;;;;;;;;;5003018;28;20026;-80
2023/01/09 05:07:20;;;;;;;4.13;0.80;;;;;;;;;;5005155;28;20104;-80
2023/01/09 05:09:45;;;;;;;5.25;0.93;;;;;;;;;;5004667;28;20034;-79
2023/01/09 05:12:11;;;;;;;3.70;0.93;;;;;;;;;;4996393;28;20028;-80
2023/01/09 05:14:36;;;;;;;3.67;0.93;;;;;;;;;;5016791;28;20490;-80
2023/01/09 05:17:01;;;;;;;4.05;0.90;;;;;;;;;;5007587;28;20097;-79
2023/01/09 05:19:27;;;;;;;2.90;1.00;;;;;;;;;;5002081;28;20070;-80
2023/01/09 05:21:52;;;;;;;2.08;0.65;;;;;;;;;;5019051;28;20022;-80
2023/01/09 05:24:17;;;;;;;2.45;0.70;;;;;;;;;;5003573;28;20500;-80
2023/01/09 05:26:43;;;;;;;3.08;0.82;;;;;;;;;;4996318;28;20137;-80
2023/01/09 05:29:09;;;;;;;2.40;0.70;;;;;;;;;;5003791;28;20033;-80
2023/01/09 05:31:34;;;;;;;2.67;1.08;;;;;;;;;;4997278;28;20026;-80
2023/01/09 05:34:00;;;;;;;2.35;0.82;;;;;;;;;;5001548;28;20045;-80
2023/01/09 05:36:25;;;;;;;2.58;0.80;;;;;;;;;;5005487;28;20032;-80
2023/01/09 05:38:50;;;;;;;3.40;0.90;;;;;;;;;;5008897;28;20033;-80
2023/01/09 05:41:16;;;;;;;1.20;0.65;;;;;;;;;;4997876;28;20022;-80
2023/01/09 05:43:41;;;;;;;5.55;0.98;;;;;;;;;;5002765;28;20482;-80
2023/01/09 05:46:07;;;;;;;2.78;0.80;;;;;;;;;;4998548;28;20123;-80
2023/01/09 05:48:32;;;;;;;2.95;0.60;;;;;;;;;;5001105;28;20033;-80
2023/01/09 05:50:57;;;;;;;3.10;0.90;;;;;;;;;;5000207;28;20026;-80
2023/01/09 05:53:23;;;;;;;2.75;0.70;;;;;;;;;;4999391;28;20049;-80
2023/01/09 05:55:48;;;;;;;3.13;0.68;;;;;;;;;;4998867;28;20040;-80
2023/01/09 05:58:13;;;;;;;2.67;0.90;;;;;;;;;;5017182;28;20030;-80
2023/01/09 06:00:39;;;;;;;2.08;0.70;;;;;;;;;;5000628;28;20165;-80
2023/01/09 06:03:09;;;;;;;2.50;0.88;;;;;;;;;;4997213;28;20029;-80
2023/01/09 06:05:37;;;;;;;2.30;0.73;;;;;;;;;;4986605;28;20029;-79
2023/01/09 06:08:05;;;;;;;3.28;0.90;;;;;;;;;;5008997;28;20076;-80
2023/01/09 06:10:31;;;;;;;2.63;0.70;;;;;;;;;;4984886;28;20038;-80
2023/01/09 06:12:56;;;;;;;3.72;0.93;;;;;;;;;;4986720;28;20037;-80
2023/01/09 06:15:22;;;;;;;3.97;0.73;;;;;;;;;;4991373;28;20030;-79
2023/01/09 06:17:47;;;;;;;3.67;1.08;;;;;;;;;;4992852;28;20018;-80
2023/01/09 06:20:12;;;;;;;2.97;0.88;;;;;;;;;;4993449;28;20029;-80
2023/01/09 06:22:38;;;;;;;7.28;1.27;;;;;;;;;;5008828;28;20037;-80
2023/01/09 06:25:04;;;;;;;6.22;0.80;;;;;;;;;;4995188;28;20479;-80
2023/01/09 06:27:30;;;;;;;4.88;0.90;;;;;;;;;;5004864;28;20038;-80
2023/01/09 06:29:55;;;;;;;3.88;1.13;;;;;;;;;;5005580;28;20072;-80
2023/01/09 06:32:20;;;;;;;4.65;1.02;;;;;;;;;;5003477;28;20057;-80
2023/01/09 06:34:46;;;;;;;3.45;0.98;;;;;;;;;;4995498;28;20038;-80
2023/01/09 06:37:11;;;;;;;5.10;0.95;;;;;;;;;;5000022;28;20147;-80
2023/01/09 06:39:36;;;;;;;3.00;0.88;;;;;;;;;;5001800;28;20036;-80
2023/01/09 06:42:02;;;;;;;2.20;0.90;;;;;;;;;;5002246;28;20088;-80
2023/01/09 06:44:28;;;;;;;3.67;1.20;;;;;;;;;;5023967;28;20541;-80
2023/01/09 06:46:53;;;;;;;4.57;0.80;;;;;;;;;;5009658;28;20026;-80
2023/01/09 06:49:22;;;;;;;4.93;1.35;;;;;;;;;;5002991;28;20080;-80
2023/01/09 06:51:49;;;;;;;3.78;0.80;;;;;;;;;;5008888;28;20099;-80
2023/01/09 06:54:15;;;;;;;2.25;0.88;;;;;;;;;;5002241;28;20037;-79
2023/01/09 06:56:40;;;;;;;4.53;1.00;;;;;;;;;;5002190;28;20031;-79
2023/01/09 06:59:06;;;;;;;1.27;0.70;;;;;;;;;;5006017;28;20026;-79
2023/01/09 07:01:31;;;;;;;2.33;1.15;;;;;;;;;;5001309;28;20060;-79
2023/01/09 07:03:56;;;;;;;6.43;1.42;;;;;;;;;;4997599;28;20474;-79
2023/01/09 07:06:22;;;;;;;4.07;0.93;;;;;;;;;;4998279;28;20119;-79
2023/01/09 07:08:47;;;;;;;4.63;0.93;;;;;;;;;;4994957;28;20030;-79
2023/01/09 07:11:12;;;;;;;3.13;1.08;;;;;;;;;;5002287;28;20367;-79
2023/01/09 07:13:38;;;;;;;5.97;1.00;;;;;;;;;;5007345;28;20087;-79
2023/01/09 07:16:04;;;;;;;3.28;0.93;;;;;;;;;;4999750;28;20393;-79
2023/01/09 07:18:30;;;;;;;3.33;1.00;;;;;;;;;;5008961;28;20470;-79
2023/01/09 07:20:55;;;;;;;3.28;1.00;;;;;;;;;;5002773;28;20038;-79
2023/01/09 07:23:21;;;;;;;5.05;1.20;;;;;;;;;;5004243;28;20084;-79
2023/01/09 07:25:46;;;;;;;2.47;0.90;;;;;;;;;;5003601;28;20022;-79
2023/01/09 07:28:11;;;;;;;3.85;1.20;;;;;;;;;;4998686;28;20161;-79
2023/01/09 07:30:37;;;;;;;2.30;1.20;;;;;;;;;;4993918;28;20387;-80
2023/01/09 07:33:02;;;;;;;3.53;1.17;;;;;;;;;;4986717;28;20053;-79
2023/01/09 07:35:28;;;;;;;5.97;1.85;;;;;;;;;;5003101;28;20025;-79
2023/01/09 07:37:53;;;;;;;4.75;1.27;;;;;;;;;;5004880;28;20172;-79
2023/01/09 07:40:18;;;;;;;3.28;1.30;;;;;;;;;;5010768;28;20025;-79
2023/01/09 07:42:44;;;;;;;2.17;1.10;;;;;;;;;;4999545;28;20038;-79
2023/01/09 07:45:10;;;;;;;3.00;1.00;;;;;;;;;;5008265;28;20385;-79
2023/01/09 07:47:35;;;;;;;5.47;1.27;;;;;;;;;;5009039;28;20041;-79
2023/01/09 07:50:00;;;;;;;6.55;2.00;;;;;;;;;;5010917;28;20088;-79
2023/01/09 07:52:26;;;;;;;4.65;1.40;;;;;;;;;;5006053;28;20049;-79
2023/01/09 07:54:52;;;;;;;4.00;1.33;;;;;;;;;;5012846;28;20045;-79
2023/01/09 07:57:17;;;;;;;5.53;1.60;;;;;;;;;;5008215;28;20108;-79
2023/01/09 07:59:43;;;;;;;2.00;1.20;;;;;;;;;;5003974;28;20389;-79
2023/01/09 08:02:08;;;;;;;2.80;1.00;;;;;;;;;;5003612;28;20034;-79
2023/01/09 08:04:34;;;;;;;2.72;1.27;;;;;;;;;;5006538;28;20397;-79
2023/01/09 08:07:01;;;;;;;3.92;1.20;;;;;;;;;;5006638;28;20033;-79
2023/01/09 08:09:27;;;;;;;5.28;1.35;;;;;;;;;;5007990;28;20025;-79
2023/01/09 08:11:52;;;;;;;6.50;1.60;;;;;;;;;;5004167;28;20635;-79
2023/01/09 08:14:18;;;;;;;2.58;1.20;;;;;;;;;;5004723;28;20037;-79
2023/01/09 08:16:43;;;;;;;5.50;1.40;;;;;;;;;;5002913;28;20026;-79
2023/01/09 08:19:10;;;;;;;3.00;1.50;;;;;;;;;;5006852;28;20038;-79
2023/01/09 08:21:36;;;;;;;2.15;1.27;;;;;;;;;;5008740;28;20029;-79
2023/01/09 08:24:01;;;;;;;3.17;1.45;;;;;;;;;;5008011;28;20412;-79
2023/01/09 08:26:27;;;;;;;5.95;1.83;;;;;;;;;;5012125;28;20021;-79
2023/01/09 08:28:52;;;;;;;6.05;1.98;;;;;;;;;;5010827;28;20163;-79
2023/01/09 08:31:18;;;;;;;4.65;2.13;;;;;;;;;;5011354;28;20033;-79
2023/01/09 08:33:43;;;;;;;4.13;2.03;;;;;;;;;;5008402;28;20071;-79
2023/01/09 08:36:09;;;;;;;5.43;2.00;;;;;;;;;;5012277;28;20398;-79
2023/01/09 08:38:34;;;;;;;4.50;1.92;;;;;;;;;;5013201;28;20149;-79
2023/01/09 08:47:04;;;;;;;4.85;2.03;;;;;;;;;;5011256;28;20036;-78
2023/01/09 08:49:21;;;;;;;4.50;1.80;;;;;;;;;;5007395;28;20501;-79
2023/01/09 08:51:46;;;;;;;4.43;2.08;;;;;;;;;;5012267;28;20026;-79
2023/01/09 08:54:12;;;;;;;4.35;2.20;;;;;;;;;;5011992;28;20035;-79
2023/01/09 08:56:37;;;;;;;4.20;1.80;;;;;;;;;;5011637;28;20022;-79
2023/01/09 08:59:03;;;;;;;4.88;2.10;;;;;;;;;;5015154;28;20385;-79
2023/01/09 09:01:28;;;;;;;3.50;1.80;;;;;;;;;;5013068;28;20112;-79
2023/01/09 09:03:54;;;;;;;7.75;1.70;;;;;;;;;;5009015;28;20077;-79
2023/01/09 09:06:19;;;;;;;2.90;1.65;;;;;;;;;;5011536;28;20120;-79
2023/01/09 09:08:44;;;;;;;2.85;1.52;;;;;;;;;;5013673;28;20028;-79
2023/01/09 09:11:10;;;;;;;4.00;1.75;;;;;;;;;;5013596;28;20164;-79
2023/01/09 09:13:36;;;;;;;4.68;2.08;;;;;;;;;;5011955;28;20037;-79
2023/01/09 09:16:01;;;;;;;6.63;2.00;;;;;;;;;;5010746;28;20497;-79
2023/01/09 09:18:27;;;;;;;4.63;1.70;;;;;;;;;;5011281;28;20037;-79
2023/01/09 09:20:52;;;;;;;3.63;1.88;;;;;;;;;;5012892;28;20512;-80
2023/01/09 09:23:17;;;;;;;4.85;1.95;;;;;;;;;;5012181;28;20029;-79
2023/01/09 09:25:43;;;;;;;4.03;1.60;;;;;;;;;;5011776;28;20037;-79
2023/01/09 09:28:08;;;;;;;5.20;1.92;;;;;;;;;;5013075;28;20024;-79
2023/01/09 09:30:34;;;;;;;4.25;1.90;;;;;;;;;;5012594;28;20401;-79
2023/01/09 09:33:03;;;;;;;6.57;2.03;;;;;;;;;;5013952;28;20087;-79
2023/01/09 09:35:29;;;;;;;3.38;2.05;;;;;;;;;;5004252;28;20026;-79
2023/01/09 09:37:57;;;;;;;4.65;2.40;;;;;;;;;;5006548;28;20026;-79
2023/01/09 09:40:42;;;;;;;4.85;2.70;;;;;;;;;;5005410;28;20041;-79
2023/01/09 09:46:31;;;;;;;7.25;2.90;;;;;;;;;;5008423;28;20036;-79
2023/01/09 09:49:04;;;;;;;4.57;2.60;;;;;;;;;;5005749;28;20037;-79
2023/01/09 09:51:30;;;;;;;;;;;;;;;;;;5006812;28;20025;-79
2023/01/09 09:54:02;;;;;;;5.10;2.35;;;;;;;;;;5005434;28;19963;-79
2023/01/09 09:56:33;;;;;;;4.13;2.42;;;;;;;;;;5001230;28;20535;-79
2023/01/09 09:59:03;;;;;;;3.53;2.03;;;;;;;;;;5004753;28;20026;-79
2023/01/09 10:01:40;;;;;;;4.55;2.10;;;;;;;;;;5003392;28;20482;-79
2023/01/09 10:04:14;;;;;;;3.97;1.98;;;;;;;;;;5007929;28;20036;-80
2023/01/09 10:06:44;;;;;;;4.28;2.40;;;;;;;;;;5010760;28;20040;-80
2023/01/09 10:09:31;;;;;;;4.60;2.25;;;;;;;;;;5008957;28;20434;-80
2023/01/09 10:12:26;;;;;;;4.15;2.33;;;;;;;;;;5008404;28;20037;-80
2023/01/09 10:14:58;;;;;;;6.40;2.40;;;;;;;;;;5013716;28;20556;-80
2023/01/09 10:17:51;;;;;;;5.28;2.40;;;;;;;;;;5012722;28;20499;-80
2023/01/09 10:20:51;;;;;;;4.78;2.40;;;;;;;;;;5012322;28;20025;-80
2023/01/09 10:23:45;;;;;;;4.40;2.42;;;;;;;;;;5010713;28;20028;-79
2023/01/09 10:26:47;;;;;;;5.97;2.92;;;;;;;;;;5009913;28;20030;-79
2023/01/09 10:29:38;;;;;;;5.10;2.63;;;;;;;;;;5009887;28;20070;-80
2023/01/09 10:32:16;;;;;;;5.50;2.90;;;;;;;;;;5010229;28;20029;-79
2023/01/09 10:34:47;;;;;;;5.00;2.50;;;;;;;;;;5010512;28;20083;-80
2023/01/09 10:37:23;;;;;;;6.93;2.85;;;;;;;;;;5011171;28;20022;-79
2023/01/09 10:39:57;;;;;;;7.30;3.17;;;;;;;;;;5010639;28;20056;-80
2023/01/09 10:42:29;;;;;;;5.80;2.90;;;;;;;;;;5009045;28;20057;-80
2023/01/09 10:45:13;;;;;;;5.00;3.13;;;;;;;;;;5000407;28;20473;-80
2023/01/09 10:47:41;;;;;;;5.22;2.47;;;;;;;;;;5010864;28;20026;-79
2023/01/09 10:50:22;;;;;;;5.63;2.58;;;;;;;;;;5011840;28;20033;-80
2023/01/09 10:52:53;;;;;;;4.32;2.22;;;;;;;;;;5010443;28;20092;-80
2023/01/09 10:55:38;;;;;;;4.82;1.95;;;;;;;;;;5009947;28;20033;-80
2023/01/09 10:58:11;;;;;;;4.28;1.88;;;;;;;;;;5006066;28;20417;-80
2023/01/09 11:00:38;;;;;;;3.78;2.00;;;;;;;;;;5011237;28;20018;-79
2023/01/09 11:03:04;;;;;;;4.97;1.90;;;;;;;;;;5011482;28;20798;-79
2023/01/09 11:05:29;;;;;;;4.32;2.00;;;;;;;;;;5008806;28;20053;-80
2023/01/09 11:08:20;;;;;;;6.68;2.03;;;;;;;;;;5007294;28;20030;-80
2023/01/09 11:10:50;;;;;;;4.38;1.90;;;;;;;;;;5018374;28;20037;-80
2023/01/09 11:13:20;;;;;;;4.43;1.75;;;;;;;;;;5011785;28;20037;-80
2023/01/09 11:15:57;;;;;;;5.28;1.73;;;;;;;;;;5014764;28;20505;-80
2023/01/09 11:18:23;;;;;;;3.90;1.80;;;;;;;;;;5010153;28;20116;-79
2023/01/09 11:20:50;;;;;;;5.78;1.50;;;;;;;;;;5004825;28;20030;-80
2023/01/09 11:23:32;;;;;;;4.65;1.95;;;;;;;;;;5012938;28;20029;-79
2023/01/09 11:26:01;;;;;;;5.82;2.05;;;;;;;;;;5014169;28;20837;-79
2023/01/09 11:28:27;;;;;;;5.18;2.13;;;;;;;;;;5014530;28;20209;-79
2023/01/09 11:30:58;;;;;;;5.50;1.98;;;;;;;;;;5012107;28;20482;-79
2023/01/09 11:33:30;;;;;;;4.35;1.90;;;;;;;;;;5015717;28;20026;-79
2023/01/09 11:36:04;;;;;;;8.30;2.00;;;;;;;;;;5015291;28;20375;-79
2023/01/09 11:38:43;;;;;;;5.15;1.88;;;;;;;;;;5013554;28;20156;-80
2023/01/09 11:41:16;;;;;;;6.75;2.00;;;;;;;;;;5015004;28;20034;-80
2023/01/09 11:43:46;;;;;;;7.13;1.83;;;;;;;;;;5014967;28;20033;-80
2023/01/09 11:46:40;;;;;;;4.93;1.80;;;;;;;;;;5009864;28;20127;-80
2023/01/09 11:49:12;;;;;;;5.50;1.67;;;;;;;;;;5013065;28;20037;-80
2023/01/09 11:51:38;;;;;;;6.53;2.00;;;;;;;;;;5012305;28;20374;-80
2023/01/09 11:54:16;;;;;;;4.82;1.63;;;;;;;;;;5012734;28;20062;-80
2023/01/09 11:56:42;;;;;;;4.22;1.70;;;;;;;;;;5006022;28;20584;-80
2023/01/09 11:59:27;;;;;;;6.93;1.98;;;;;;;;;;5014942;28;20105;-80
2023/01/09 12:02:11;;;;;;;6.72;1.77;;;;;;;;;;5014052;28;20074;-80
2023/01/09 12:04:41;;;;;;;6.60;2.20;;;;;;;;;;5003481;28;20069;-80
2023/01/09 12:07:34;;;;;;;5.05;1.88;;;;;;;;;;5013052;28;20067;-80
2023/01/09 12:10:21;;;;;;;3.50;1.20;;;;;;;;;;5012649;28;20014;-80
2023/01/09 12:13:11;;;;;;;5.18;1.63;;;;;;;;;;5010582;28;20715;-80
2023/01/09 12:16:06;;;;;;;2.80;1.35;;;;;;;;;;5013904;28;20168;-80
2023/01/09 12:19:06;;;;;;;4.60;1.58;;;;;;;;;;5004007;28;20022;-79
2023/01/09 12:21:47;;;;;;;4.18;1.50;;;;;;;;;;5009655;28;20049;-79
2023/01/09 12:24:35;;;;;;;3.25;1.15;;;;;;;;;;5014256;28;20078;-79
2023/01/09 12:27:25;;;;;;;4.15;1.05;;;;;;;;;;5011633;28;20048;-79
2023/01/09 12:30:25;;;;;;;6.03;1.20;;;;;;;;;;5010652;28;20058;-78
2023/01/09 12:33:09;;;;;;;3.45;1.50;;;;;;;;;;5009445;28;20034;-79
2023/01/09 12:35:46;;;;;;;5.00;1.80;;;;;;;;;;5009359;28;20092;-79
2023/01/09 12:38:20;;;;;;;6.68;2.13;;;;;;;;;;5011384;28;20018;-79
2023/01/09 12:40:51;;;;;;;5.63;2.13;;;;;;;;;;5011917;28;20061;-79
2023/01/09 12:43:26;;;;;;;5.80;1.80;;;;;;;;;;5013236;28;20032;-79
2023/01/09 12:46:04;;;;;;;3.45;1.20;;;;;;;;;;5011455;28;20092;-79
2023/01/09 12:48:57;;;;;;;3.15;1.40;;;;;;;;;;5013216;28;20037;-79
2023/01/09 12:51:34;;;;;;;3.58;1.45;;;;;;;;;;5020539;28;20383;-79
2023/01/09 12:54:12;;;;;;;5.55;1.27;;;;;;;;;;5007329;28;20032;-79
2023/01/09 12:56:44;;;;;;;2.78;1.10;;;;;;;;;;5011349;28;20037;-79
2023/01/09 12:59:37;;;;;;;3.97;0.90;;;;;;;;;;5003526;28;20116;-79
2023/01/09 13:02:20;;;;;;;5.03;1.25;;;;;;;;;;5024625;28;20068;-79
2023/01/09 13:04:55;;;;;;;3.58;0.95;;;;;;;;;;5006467;28;20054;-79
2023/01/09 13:07:25;;;;;;;4.57;1.17;;;;;;;;;;5009316;28;20022;-79
2023/01/09 13:10:34;;;;;;;4.07;1.40;;;;;;;;;;5018237;28;20038;-80
2023/01/09 13:13:06;;;;;;;4.30;1.33;;;;;;;;;;4998314;28;20060;-80
2023/01/09 13:15:37;;;;;;;4.80;1.50;;;;;;;;;;5021272;28;20022;-79
2023/01/09 13:18:06;;;;;;;6.57;1.70;;;;;;;;;;5010887;28;20037;-79
2023/01/09 13:20:46;;;;;;;6.60;2.03;;;;;;;;;;5005915;28;20030;-79
2023/01/09 13:23:38;;;;;;;6.22;1.60;;;;;;;;;;5011685;28;20030;-79
2023/01/09 13:26:15;;;;;;;6.13;2.08;;;;;;;;;;4993230;28;20045;-79
2023/01/09 13:28:51;;;;;;;7.10;2.08;;;;;;;;;;5006709;28;20034;-79
2023/01/09 13:31:38;;;;;;;5.85;1.92;;;;;;;;;;5011646;28;20493;-79
2023/01/09 13:34:10;;;;;;;5.90;2.10;;;;;;;;;;5024346;28;20033;-79
2023/01/09 13:36:38;;;;;;;6.22;2.30;;;;;;;;;;5005039;28;20021;-79
2023/01/09 13:39:04;;;;;;;3.78;1.50;;;;;;;;;;5008915;28;20115;-80
2023/01/09 13:44:29;;;;;;;5.75;1.63;;;;;;;;;;5007959;28;20398;-79
2023/01/09 13:46:58;;;;;;;6.07;1.92;;;;;;;;;;5005923;28;20030;-79
2023/01/09 13:49:35;;;;;;;5.40;1.67;;;;;;;;;;5010809;28;20104;-80
2023/01/09 13:52:25;;;;;;;4.45;1.25;;;;;;;;;;5005898;28;20084;-80
2023/01/09 13:54:50;;;;;;;3.60;1.30;;;;;;;;;;5003485;28;20025;-80
2023/01/09 13:57:18;;;;;;;2.25;0.82;;;;;;;;;;5012250;28;20021;-79
2023/01/09 13:59:45;;;;;;;1.60;0.75;;;;;;;;;;5004375;28;20041;-80
2023/01/09 14:02:45;;;;;;;3.33;1.02;;;;;;;;;;5010074;28;20026;-80
2023/01/09 14:05:12;;;;;;;2.25;0.68;;;;;;;;;;4991093;28;20033;-80
2023/01/09 14:07:41;;;;;;;1.35;0.70;;;;;;;;;;5011108;28;20037;-80
2023/01/09 14:10:22;;;;;;;2.53;0.80;;;;;;;;;;5009088;28;20029;-80
2023/01/09 14:12:51;;;;;;;3.00;0.70;;;;;;;;;;5006195;28;20029;-80
2023/01/09 14:15:28;;;;;;;3.47;0.88;;;;;;;;;;5010429;28;20486;-80
2023/01/09 14:18:01;;;;;;;4.00;0.80;;;;;;;;;;5001785;28;20520;-80
2023/01/09 14:20:34;;;;;;;3.08;1.00;;;;;;;;;;5010355;28;20128;-80
2023/01/09 14:23:00;;;;;;;2.22;0.80;;;;;;;;;;5011639;28;20052;-80
2023/01/09 14:25:29;;;;;;;3.13;1.15;;;;;;;;;;5007044;28;20036;-80
2023/01/09 14:27:54;;;;;;;5.68;1.17;;;;;;;;;;5005475;28;20137;-79
2023/01/09 14:30:27;;;;;;;7.40;1.30;;;;;;;;;;5006028;28;20140;-80
2023/01/09 14:33:11;;;;;;;;;;;;;;;;;;5011280;28;20072;-80
2023/01/09 14:36:04;;;;;;;2.33;1.05;;;;;;;;;;5008751;28;19913;-80
2023/01/09 14:38:33;;;;;;;2.50;1.20;;;;;;;;;;5006926;28;20033;-79
2023/01/09 14:41:06;;;;;;;5.55;1.38;;;;;;;;;;4999658;28;20033;-79
2023/01/09 14:43:48;;;;;;;5.68;1.30;;;;;;;;;;5003308;28;20107;-80
2023/01/09 14:46:17;;;;;;;4.28;1.63;;;;;;;;;;5004638;28;20492;-80
2023/01/09 14:48:57;;;;;;;4.20;1.23;;;;;;;;;;5008289;28;20030;-79
2023/01/09 14:51:24;;;;;;;8.43;2.03;;;;;;;;;;5008832;28;20476;-79
2023/01/09 14:53:52;;;;;;;5.72;1.80;;;;;;;;;;4998453;28;20541;-79
2023/01/09 14:56:30;;;;;;;4.75;1.48;;;;;;;;;;5005764;28;20116;-80
2023/01/09 14:59:13;;;;;;;4.93;1.90;;;;;;;;;;5011800;28;20083;-80
2023/01/09 15:01:45;;;;;;;3.47;1.58;;;;;;;;;;5007510;28;20108;-79
2023/01/09 15:04:30;;;;;;;7.25;1.77;;;;;;;;;;5011343;28;20025;-79
2023/01/09 15:06:56;;;;;;;5.22;1.70;;;;;;;;;;5007500;28;20026;-79
2023/01/09 15:09:46;;;;;;;4.38;2.10;;;;;;;;;;5013353;28;20025;-79
2023/01/09 15:12:19;;;;;;;9.15;1.90;;;;;;;;;;5014023;28;20496;-79
2023/01/09 15:14:48;;;;;;;5.18;1.38;;;;;;;;;;5011162;28;20108;-79
2023/01/09 15:17:35;;;;;;;5.88;1.40;;;;;;;;;;5014595;28;20377;-79
2023/01/09 15:20:04;;;;;;;6.55;1.50;;;;;;;;;;5004805;28;20044;-79
2023/01/09 15:22:35;;;;;;;4.18;1.20;;;;;;;;;;5014186;28;20608;-79